createdAt,value
2019-06-20T00:00:20.609Z,1000.58
2019-06-20T00:01:22.018Z,1000.58
2019-06-20T00:02:23.409Z,1000.56
2019-06-20T00:03:24.815Z,1000.53
2019-06-20T00:04:26.223Z,1000.55
2019-06-20T00:05:27.615Z,1000.51
2019-06-20T00:06:29.019Z,1000.58
2019-06-20T00:07:30.421Z,1000.63
2019-06-20T00:08:31.824Z,1000.69
2019-06-20T00:09:33.223Z,1000.71
2019-06-20T00:10:34.635Z,1000.69
2019-06-20T00:11:36.038Z,1000.68
2019-06-20T00:12:37.441Z,1000.66
2019-06-20T00:13:38.845Z,1000.68
2019-06-20T00:14:40.244Z,1000.67
2019-06-20T00:15:41.703Z,1000.63
2019-06-20T00:16:43.002Z,1000.67
2019-06-20T00:17:44.406Z,1000.72
2019-06-20T00:18:45.822Z,1000.75
2019-06-20T00:19:47.225Z,1000.81
2019-06-20T00:20:48.633Z,1000.80
2019-06-20T00:21:50.058Z,1000.80
2019-06-20T00:22:51.463Z,1000.81
2019-06-20T00:23:52.853Z,1000.78
2019-06-20T00:24:54.254Z,1000.80
2019-06-20T00:25:55.653Z,1000.82
2019-06-20T00:26:57.055Z,1000.81
2019-06-20T00:27:58.467Z,1000.80
2019-06-20T00:28:59.870Z,1000.80
2019-06-20T00:30:01.276Z,1000.80
2019-06-20T00:31:02.693Z,1000.93
2019-06-20T00:32:04.100Z,1000.92
2019-06-20T00:33:05.526Z,1000.92
2019-06-20T00:34:06.930Z,1000.91
2019-06-20T00:35:08.322Z,1000.93
2019-06-20T00:36:09.726Z,1000.93
2019-06-20T00:37:11.125Z,1000.87
2019-06-20T00:38:12.547Z,1000.91
2019-06-20T00:39:13.948Z,1000.89
2019-06-20T00:40:15.347Z,1000.90
2019-06-20T00:41:16.748Z,1000.92
2019-06-20T00:42:18.148Z,1001.00
2019-06-20T00:43:19.549Z,1001.13
2019-06-20T00:44:20.985Z,1001.17
2019-06-20T00:45:22.361Z,1001.28
2019-06-20T00:46:23.753Z,1001.38
2019-06-20T00:47:25.159Z,1001.54
2019-06-20T00:48:26.569Z,1001.58
2019-06-20T00:49:28.042Z,1001.54
2019-06-20T00:50:29.401Z,1001.59
2019-06-20T00:51:30.809Z,1001.54
2019-06-20T00:52:32.207Z,1001.60
2019-06-20T00:53:33.630Z,1001.47
2019-06-20T00:54:35.021Z,1001.48
2019-06-20T00:55:36.419Z,1001.33
2019-06-20T00:56:37.839Z,1001.37
2019-06-20T00:57:39.235Z,1001.28
2019-06-20T00:58:40.639Z,1001.30
2019-06-20T00:59:42.034Z,1001.22
2019-06-20T01:00:43.400Z,1001.23
2019-06-20T01:01:44.806Z,1001.31
2019-06-20T01:02:46.214Z,1001.29
2019-06-20T01:03:47.617Z,1001.30
2019-06-20T01:04:49.017Z,1001.32
2019-06-20T01:05:50.429Z,1001.39
2019-06-20T01:06:51.833Z,1001.36
2019-06-20T01:07:53.235Z,1001.42
2019-06-20T01:08:54.633Z,1001.43
2019-06-20T01:09:56.041Z,1001.49
2019-06-20T01:10:57.433Z,1001.50
2019-06-20T01:11:58.834Z,1001.49
2019-06-20T01:13:00.233Z,1001.48
2019-06-20T01:14:01.633Z,1001.52
2019-06-20T01:15:03.034Z,1001.55
2019-06-20T01:16:04.428Z,1001.55
2019-06-20T01:17:05.837Z,1001.52
2019-06-20T01:18:07.242Z,1001.58
2019-06-20T01:19:08.655Z,1001.57
2019-06-20T01:20:10.056Z,1001.63
2019-06-20T01:21:11.466Z,1001.57
2019-06-20T01:22:12.864Z,1001.59
2019-06-20T01:23:14.266Z,1001.61
2019-06-20T01:24:15.660Z,1001.64
2019-06-20T01:25:17.062Z,1001.69
2019-06-20T01:26:18.459Z,1001.67
2019-06-20T01:27:19.859Z,1001.59
2019-06-20T01:28:21.267Z,1001.61
2019-06-20T01:29:22.670Z,1001.69
2019-06-20T01:30:24.061Z,1001.61
2019-06-20T01:31:25.469Z,1001.66
2019-06-20T01:32:26.864Z,1001.66
2019-06-20T01:33:28.262Z,1001.64
2019-06-20T01:34:29.684Z,1001.62
2019-06-20T01:35:31.069Z,1001.66
2019-06-20T01:36:32.463Z,1001.65
2019-06-20T01:37:33.873Z,1001.65
2019-06-20T01:38:35.265Z,1001.63
2019-06-20T01:39:36.683Z,1001.63
2019-06-20T01:40:38.075Z,1001.60
2019-06-20T01:41:39.503Z,1001.58
2019-06-20T01:42:40.884Z,1001.56
2019-06-20T01:43:50.652Z,1001.49
2019-06-20T01:44:43.644Z,1001.53
2019-06-20T01:45:45.041Z,1001.54
2019-06-20T01:46:46.443Z,1001.51
2019-06-20T01:47:47.850Z,1001.55
2019-06-20T01:48:49.240Z,1001.52
2019-06-20T01:49:50.647Z,1001.56
2019-06-20T01:50:52.033Z,1001.51
2019-06-20T01:51:53.452Z,1001.47
2019-06-20T01:52:54.850Z,1001.43
2019-06-20T01:53:56.262Z,1001.39
2019-06-20T01:54:57.659Z,1001.36
2019-06-20T01:55:59.065Z,1001.36
2019-06-20T01:57:00.474Z,1001.30
2019-06-20T01:58:01.887Z,1001.27
2019-06-20T01:59:03.290Z,1001.24
2019-06-20T02:00:04.691Z,1001.24
2019-06-20T02:01:06.089Z,1001.20
2019-06-20T02:02:07.480Z,1001.18
2019-06-20T02:03:08.878Z,1001.12
2019-06-20T02:04:10.276Z,1001.03
2019-06-20T02:05:11.693Z,1001.03
2019-06-20T02:06:13.101Z,1000.97
2019-06-20T02:07:14.513Z,1000.89
2019-06-20T02:08:15.914Z,1000.79
2019-06-20T02:09:17.311Z,1000.76
2019-06-20T02:10:18.752Z,1000.74
2019-06-20T02:11:20.141Z,1000.76
2019-06-20T02:12:21.539Z,1000.77
2019-06-20T02:13:22.939Z,1000.77
2019-06-20T02:14:24.341Z,1000.63
2019-06-20T02:15:25.749Z,1000.60
2019-06-20T02:16:27.160Z,1000.57
2019-06-20T02:17:28.570Z,1000.53
2019-06-20T02:18:29.970Z,1000.52
2019-06-20T02:19:31.385Z,1000.52
2019-06-20T02:20:32.789Z,1000.50
2019-06-20T02:21:34.191Z,1000.52
2019-06-20T02:22:35.608Z,1000.51
2019-06-20T02:23:37.004Z,1000.54
2019-06-20T02:24:38.412Z,1000.60
2019-06-20T02:25:39.812Z,1000.61
2019-06-20T02:26:41.211Z,1000.63
2019-06-20T02:27:42.608Z,1000.71
2019-06-20T02:28:44.002Z,1000.61
2019-06-20T02:29:45.412Z,1000.69
2019-06-20T02:30:46.812Z,1000.70
2019-06-20T02:31:48.214Z,1000.67
2019-06-20T02:32:49.622Z,1000.72
2019-06-20T02:33:51.021Z,1000.68
2019-06-20T02:34:52.413Z,1000.66
2019-06-20T02:35:53.830Z,1000.67
2019-06-20T02:36:55.221Z,1000.70
2019-06-20T02:37:56.646Z,1000.74
2019-06-20T02:38:58.030Z,1000.79
2019-06-20T02:39:59.431Z,1000.79
2019-06-20T02:41:00.825Z,1000.83
2019-06-20T02:42:02.226Z,1000.87
2019-06-20T02:43:03.617Z,1000.78
2019-06-20T02:44:05.051Z,1000.78
2019-06-20T02:45:06.454Z,1000.72
2019-06-20T02:46:07.848Z,1000.71
2019-06-20T02:47:09.358Z,1000.72
2019-06-20T02:48:10.618Z,1000.72
2019-06-20T02:49:12.029Z,1000.73
2019-06-20T02:50:13.440Z,1000.78
2019-06-20T02:51:14.846Z,1000.77
2019-06-20T02:52:16.254Z,1000.76
2019-06-20T02:53:17.663Z,1000.80
2019-06-20T02:54:20.001Z,1000.75
2019-06-20T02:55:21.407Z,1000.75
2019-06-20T02:56:22.801Z,1000.75
2019-06-20T02:57:24.204Z,1000.71
2019-06-20T02:58:25.608Z,1000.68
2019-06-20T02:59:27.020Z,1000.68
2019-06-20T03:00:28.420Z,1000.60
2019-06-20T03:01:29.823Z,1000.66
2019-06-20T03:02:31.228Z,1000.68
2019-06-20T03:03:32.640Z,1000.64
2019-06-20T03:04:34.140Z,1000.65
2019-06-20T03:05:35.413Z,1000.58
2019-06-20T03:06:36.834Z,1000.57
2019-06-20T03:07:38.230Z,1000.55
2019-06-20T03:08:39.646Z,1000.52
2019-06-20T03:09:41.060Z,1000.61
2019-06-20T03:10:42.469Z,1000.71
2019-06-20T03:11:43.873Z,1000.70
2019-06-20T03:12:45.277Z,1000.76
2019-06-20T03:13:46.708Z,1000.75
2019-06-20T03:14:48.107Z,1000.78
2019-06-20T03:15:50.101Z,1000.83
2019-06-20T03:16:50.898Z,1000.89
2019-06-20T03:17:52.289Z,1001.04
2019-06-20T03:18:53.709Z,1001.03
2019-06-20T03:19:55.110Z,1001.08
2019-06-20T03:20:56.509Z,1001.07
2019-06-20T03:21:57.930Z,1001.08
2019-06-20T03:22:59.324Z,1001.11
2019-06-20T03:24:00.732Z,1001.13
2019-06-20T03:25:02.155Z,1001.19
2019-06-20T03:26:03.574Z,1001.10
2019-06-20T03:27:04.961Z,1001.09
2019-06-20T03:28:06.372Z,1001.14
2019-06-20T03:29:07.772Z,1001.06
2019-06-20T03:30:09.180Z,1001.16
2019-06-20T03:31:10.589Z,1001.16
2019-06-20T03:32:11.994Z,1001.21
2019-06-20T03:33:13.416Z,1001.22
2019-06-20T03:34:14.826Z,1001.25
2019-06-20T03:35:16.232Z,1001.20
2019-06-20T03:36:17.642Z,1001.26
2019-06-20T03:37:19.051Z,1001.30
2019-06-20T03:38:20.464Z,1001.30
2019-06-20T03:39:21.872Z,1001.30
2019-06-20T03:40:23.273Z,1001.30
2019-06-20T03:41:24.684Z,1001.28
2019-06-20T03:42:26.089Z,1001.30
2019-06-20T03:43:27.491Z,1001.26
2019-06-20T03:44:28.906Z,1001.19
2019-06-20T03:45:30.310Z,1001.12
2019-06-20T03:46:31.726Z,1001.13
2019-06-20T03:47:33.129Z,1001.11
2019-06-20T03:48:34.535Z,1001.03
2019-06-20T03:49:35.949Z,1001.02
2019-06-20T03:50:37.365Z,1001.00
2019-06-20T03:51:38.761Z,1001.02
2019-06-20T03:52:40.173Z,1000.95
2019-06-20T03:53:41.570Z,1000.92
2019-06-20T03:54:42.982Z,1000.87
2019-06-20T03:55:44.388Z,1000.82
2019-06-20T03:56:45.812Z,1000.75
2019-06-20T03:57:47.950Z,1000.66
2019-06-20T03:58:49.346Z,1000.61
2019-06-20T03:59:50.777Z,1000.62
2019-06-20T04:00:52.175Z,1000.72
2019-06-20T04:01:53.593Z,1000.76
2019-06-20T04:02:55.003Z,1000.76
2019-06-20T04:03:56.406Z,1000.76
2019-06-20T04:04:57.816Z,1000.68
2019-06-20T04:05:59.216Z,1000.58
2019-06-20T04:07:00.631Z,1000.47
2019-06-20T04:08:02.026Z,1000.45
2019-06-20T04:09:03.433Z,1000.40
2019-06-20T04:10:04.834Z,1000.36
2019-06-20T04:11:06.250Z,1000.22
2019-06-20T04:12:07.667Z,1000.24
2019-06-20T04:13:09.068Z,1000.27
2019-06-20T04:14:10.480Z,1000.30
2019-06-20T04:15:18.965Z,1000.37
2019-06-20T04:16:13.249Z,1000.42
2019-06-20T04:17:14.659Z,1000.45
2019-06-20T04:18:16.069Z,1000.51
2019-06-20T04:19:17.479Z,1000.57
2019-06-20T04:20:18.875Z,1000.59
2019-06-20T04:21:20.273Z,1000.65
2019-06-20T04:22:21.687Z,1000.77
2019-06-20T04:23:23.093Z,1000.77
2019-06-20T04:24:27.107Z,1000.70
2019-06-20T04:25:25.843Z,1000.63
2019-06-20T04:26:27.254Z,1000.65
2019-06-20T04:27:28.665Z,1000.65
2019-06-20T04:28:30.062Z,1000.69
2019-06-20T04:29:31.488Z,1000.59
2019-06-20T04:30:32.893Z,1000.60
2019-06-20T04:31:34.299Z,1000.67
2019-06-20T04:32:35.769Z,1000.79
2019-06-20T04:33:37.098Z,1000.77
2019-06-20T04:34:38.505Z,1000.67
2019-06-20T04:35:39.902Z,1000.68
2019-06-20T04:36:41.358Z,1000.75
2019-06-20T04:37:42.685Z,1000.77
2019-06-20T04:38:44.106Z,1000.78
2019-06-20T04:39:45.477Z,1000.94
2019-06-20T04:40:46.893Z,1000.92
2019-06-20T04:41:48.321Z,1000.84
2019-06-20T04:42:49.746Z,1000.98
2019-06-20T04:43:51.163Z,1000.97
2019-06-20T04:44:52.557Z,1000.96
2019-06-20T04:45:54.914Z,1000.99
2019-06-20T04:46:56.343Z,1000.93
2019-06-20T04:47:57.770Z,1000.92
2019-06-20T04:48:59.178Z,1000.95
2019-06-20T04:50:00.591Z,1000.97
2019-06-20T04:51:02.048Z,1000.96
2019-06-20T04:52:03.463Z,1000.99
2019-06-20T04:53:04.890Z,1000.92
2019-06-20T04:54:06.325Z,1000.88
2019-06-20T04:55:07.742Z,1000.87
2019-06-20T04:56:09.155Z,1000.88
2019-06-20T04:57:10.573Z,1000.98
2019-06-20T04:58:11.991Z,1001.13
2019-06-20T04:59:13.431Z,1001.15
2019-06-20T05:00:14.852Z,1001.14
2019-06-20T05:01:16.836Z,1001.12
2019-06-20T05:02:18.252Z,1001.19
2019-06-20T05:03:19.657Z,1001.12
2019-06-20T05:04:21.086Z,1001.37
2019-06-20T05:05:22.492Z,1001.22
2019-06-20T05:06:23.914Z,1001.32
2019-06-20T05:07:25.324Z,1001.25
2019-06-20T05:08:26.766Z,1001.29
2019-06-20T05:09:28.196Z,1001.27
2019-06-20T05:10:29.616Z,1001.30
2019-06-20T05:11:31.033Z,1001.49
2019-06-20T05:12:32.467Z,1001.32
2019-06-20T05:13:33.881Z,1001.38
2019-06-20T05:14:35.290Z,1001.48
2019-06-20T05:15:51.479Z,1001.45
2019-06-20T05:16:38.081Z,1001.46
2019-06-20T05:17:39.533Z,1001.45
2019-06-20T05:18:40.956Z,1001.54
2019-06-20T05:19:42.361Z,1001.58
2019-06-20T05:20:43.783Z,1001.66
2019-06-20T05:21:45.197Z,1001.68
2019-06-20T05:22:46.607Z,1001.70
2019-06-20T05:23:48.026Z,1001.72
2019-06-20T05:24:49.444Z,1001.74
2019-06-20T05:25:50.862Z,1001.66
2019-06-20T05:26:52.268Z,1001.67
2019-06-20T05:27:53.730Z,1001.62
2019-06-20T05:28:55.050Z,1001.62
2019-06-20T05:29:56.457Z,1001.64
2019-06-20T05:30:57.874Z,1001.71
2019-06-20T05:31:59.286Z,1001.72
2019-06-20T05:33:00.693Z,1001.69
2019-06-20T05:34:02.098Z,1001.70
2019-06-20T05:35:03.542Z,1001.73
2019-06-20T05:36:04.950Z,1001.71
2019-06-20T05:37:06.366Z,1001.69
2019-06-20T05:38:07.789Z,1001.69
2019-06-20T05:39:09.183Z,1001.73
2019-06-20T05:40:10.603Z,1001.80
2019-06-20T05:41:12.013Z,1001.84
2019-06-20T05:42:13.426Z,1001.81
2019-06-20T05:43:14.827Z,1001.98
2019-06-20T05:44:16.247Z,1001.89
2019-06-20T05:45:17.677Z,1001.84
2019-06-20T05:46:19.135Z,1001.78
2019-06-20T05:47:20.527Z,1001.67
2019-06-20T05:48:21.909Z,1001.70
2019-06-20T05:49:23.364Z,1001.83
2019-06-20T05:50:24.783Z,1001.82
2019-06-20T05:51:26.197Z,1001.86
2019-06-20T05:52:27.598Z,1001.84
2019-06-20T05:53:29.010Z,1001.86
2019-06-20T05:54:30.409Z,1001.87
2019-06-20T05:55:31.830Z,1001.83
2019-06-20T05:56:33.244Z,1001.89
2019-06-20T05:57:34.676Z,1001.90
2019-06-20T05:58:36.080Z,1001.90
2019-06-20T05:59:37.544Z,1001.86
2019-06-20T06:00:38.974Z,1001.83
2019-06-20T06:01:40.388Z,1001.87
2019-06-20T06:02:41.816Z,1001.86
2019-06-20T06:03:43.258Z,1001.88
2019-06-20T06:04:44.653Z,1001.93
2019-06-20T06:05:46.079Z,1001.91
2019-06-20T06:06:47.580Z,1001.86
2019-06-20T06:07:48.883Z,1001.89
2019-06-20T06:08:50.351Z,1001.89
2019-06-20T06:09:51.775Z,1001.89
2019-06-20T06:10:53.212Z,1001.92
2019-06-20T06:11:54.644Z,1001.96
2019-06-20T06:12:56.027Z,1001.96
2019-06-20T06:13:57.425Z,1001.99
2019-06-20T06:15:00.846Z,1002.02
2019-06-20T06:16:00.312Z,1001.98
2019-06-20T06:17:01.630Z,1001.95
2019-06-20T06:18:03.086Z,1001.96
2019-06-20T06:19:04.490Z,1002.01
2019-06-20T06:20:05.909Z,1001.98
2019-06-20T06:21:07.337Z,1002.04
2019-06-20T06:22:08.735Z,1002.06
2019-06-20T06:23:10.152Z,1002.12
2019-06-20T06:24:11.555Z,1002.05
2019-06-20T06:25:12.960Z,1002.09
2019-06-20T06:26:14.387Z,1002.11
2019-06-20T06:27:15.790Z,1002.16
2019-06-20T06:28:17.209Z,1002.23
2019-06-20T06:29:18.618Z,1002.23
2019-06-20T06:30:20.051Z,1002.22
2019-06-20T06:31:21.456Z,1002.24
2019-06-20T06:32:36.296Z,1002.28
2019-06-20T06:33:24.235Z,1002.31
2019-06-20T06:34:25.656Z,1002.26
2019-06-20T06:35:27.039Z,1002.28
2019-06-20T06:36:28.475Z,1002.33
2019-06-20T06:37:29.881Z,1002.35
2019-06-20T06:38:31.313Z,1002.37
2019-06-20T06:39:32.736Z,1002.48
2019-06-20T06:40:34.149Z,1002.46
2019-06-20T06:41:35.549Z,1002.53
2019-06-20T06:42:36.955Z,1002.50
2019-06-20T06:43:41.865Z,1002.53
2019-06-20T06:44:39.757Z,1002.54
2019-06-20T06:45:41.154Z,1002.51
2019-06-20T06:46:48.435Z,1002.50
2019-06-20T06:47:43.931Z,1002.50
2019-06-20T06:48:45.377Z,1002.49
2019-06-20T06:49:46.749Z,1002.43
2019-06-20T06:50:48.164Z,1002.46
2019-06-20T06:51:49.566Z,1002.46
2019-06-20T06:52:50.960Z,1002.41
2019-06-20T06:53:52.368Z,1002.33
2019-06-20T06:54:53.777Z,1002.39
2019-06-20T06:55:55.207Z,1002.36
2019-06-20T06:56:56.623Z,1002.32
2019-06-20T06:57:58.121Z,1002.35
2019-06-20T06:58:59.418Z,1002.36
2019-06-20T07:00:00.833Z,1002.31
2019-06-20T07:01:02.343Z,1002.27
2019-06-20T07:02:03.649Z,1002.31
2019-06-20T07:03:05.094Z,1002.27
2019-06-20T07:04:06.501Z,1002.28
2019-06-20T07:05:07.917Z,1002.30
2019-06-20T07:06:09.396Z,1002.31
2019-06-20T07:07:10.714Z,1002.34
2019-06-20T07:08:12.133Z,1002.37
2019-06-20T07:09:13.545Z,1002.37
2019-06-20T07:10:14.950Z,1002.37
2019-06-20T07:11:16.376Z,1002.36
2019-06-20T07:12:17.774Z,1002.40
2019-06-20T07:13:19.185Z,1002.42
2019-06-20T07:14:20.643Z,1002.45
2019-06-20T07:15:22.055Z,1002.51
2019-06-20T07:16:23.464Z,1002.52
2019-06-20T07:17:24.869Z,1002.54
2019-06-20T07:18:26.291Z,1002.60
2019-06-20T07:19:27.681Z,1002.65
2019-06-20T07:20:29.089Z,1002.73
2019-06-20T07:21:30.500Z,1002.78
2019-06-20T07:22:31.942Z,1002.88
2019-06-20T07:23:33.343Z,1002.94
2019-06-20T07:24:34.748Z,1002.98
2019-06-20T07:25:36.158Z,1002.96
2019-06-20T07:26:37.569Z,1002.95
2019-06-20T07:27:38.984Z,1003.02
2019-06-20T07:28:40.394Z,1003.09
2019-06-20T07:29:41.799Z,1003.12
2019-06-20T07:30:43.208Z,1003.20
2019-06-20T07:31:44.620Z,1003.17
2019-06-20T07:32:46.026Z,1003.16
2019-06-20T07:33:47.430Z,1003.24
2019-06-20T07:34:48.839Z,1003.24
2019-06-20T07:35:50.242Z,1003.24
2019-06-20T07:36:51.669Z,1003.26
2019-06-20T07:37:53.067Z,1003.29
2019-06-20T07:38:54.480Z,1003.31
2019-06-20T07:39:55.891Z,1003.36
2019-06-20T07:40:57.291Z,1003.31
2019-06-20T07:41:58.699Z,1003.33
2019-06-20T07:43:00.123Z,1003.35
2019-06-20T07:44:01.558Z,1003.41
2019-06-20T07:45:03.017Z,1003.38
2019-06-20T07:46:04.434Z,1003.42
2019-06-20T07:47:17.141Z,1003.45
2019-06-20T07:48:07.262Z,1003.39
2019-06-20T07:49:08.707Z,1003.47
2019-06-20T07:50:10.164Z,1003.47
2019-06-20T07:51:11.590Z,1003.35
2019-06-20T07:52:13.024Z,1003.48
2019-06-20T07:53:14.464Z,1003.41
2019-06-20T07:54:15.881Z,1003.37
2019-06-20T07:55:17.300Z,1003.48
2019-06-20T07:56:18.729Z,1003.45
2019-06-20T07:57:20.174Z,1003.47
2019-06-20T07:58:21.621Z,1003.41
2019-06-20T07:59:23.071Z,1003.36
2019-06-20T08:00:24.501Z,1003.32
2019-06-20T08:01:25.939Z,1003.34
2019-06-20T08:02:27.387Z,1003.31
2019-06-20T08:03:28.827Z,1003.37
2019-06-20T08:04:30.281Z,1003.34
2019-06-20T08:05:31.725Z,1003.39
2019-06-20T08:06:33.165Z,1003.42
2019-06-20T08:07:34.605Z,1003.43
2019-06-20T08:08:36.050Z,1003.38
2019-06-20T08:09:44.731Z,1003.40
2019-06-20T08:10:38.851Z,1003.38
2019-06-20T08:11:40.274Z,1003.31
2019-06-20T08:12:41.733Z,1003.36
2019-06-20T08:13:43.139Z,1003.39
2019-06-20T08:14:44.543Z,1003.40
2019-06-20T08:15:45.945Z,1003.39
2019-06-20T08:16:47.382Z,1003.43
2019-06-20T08:17:48.811Z,1003.45
2019-06-20T08:18:50.227Z,1003.44
2019-06-20T08:19:51.636Z,1003.46
2019-06-20T08:20:53.060Z,1003.43
2019-06-20T08:21:54.487Z,1003.44
2019-06-20T08:22:55.880Z,1003.43
2019-06-20T08:23:57.305Z,1003.48
2019-06-20T08:24:59.040Z,1003.49
2019-06-20T08:26:00.537Z,1003.53
2019-06-20T08:27:03.082Z,1003.58
2019-06-20T08:28:02.844Z,1003.60
2019-06-20T08:29:15.829Z,1003.61
2019-06-20T08:30:05.650Z,1003.62
2019-06-20T08:31:07.058Z,1003.61
2019-06-20T08:32:08.481Z,1003.65
2019-06-20T08:33:11.964Z,1003.58
2019-06-20T08:34:11.269Z,1003.56
2019-06-20T08:35:12.682Z,1003.59
2019-06-20T08:36:14.110Z,1003.59
2019-06-20T08:37:15.519Z,1003.61
2019-06-20T08:38:17.025Z,1003.61
2019-06-20T08:39:18.438Z,1003.61
2019-06-20T08:40:19.927Z,1003.63
2019-06-20T08:41:21.372Z,1003.63
2019-06-20T08:42:22.802Z,1003.65
2019-06-20T08:43:24.204Z,1003.69
2019-06-20T08:44:25.620Z,1003.61
2019-06-20T08:45:27.039Z,1003.61
2019-06-20T08:46:28.558Z,1003.59
2019-06-20T08:47:30.096Z,1003.61
2019-06-20T08:48:31.496Z,1003.60
2019-06-20T08:49:32.933Z,1003.54
2019-06-20T08:50:34.343Z,1003.64
2019-06-20T08:51:35.777Z,1003.61
2019-06-20T08:52:37.204Z,1003.62
2019-06-20T08:53:38.614Z,1003.60
2019-06-20T08:54:40.027Z,1003.59
2019-06-20T08:55:41.444Z,1003.62
2019-06-20T08:56:42.881Z,1003.60
2019-06-20T08:57:44.259Z,1003.61
2019-06-20T08:58:45.709Z,1003.61
2019-06-20T08:59:47.113Z,1003.52
2019-06-20T09:00:48.518Z,1003.57
2019-06-20T09:01:49.934Z,1003.60
2019-06-20T09:02:51.328Z,1003.56
2019-06-20T09:03:53.974Z,1003.56
2019-06-20T09:04:55.201Z,1003.55
2019-06-20T09:05:57.098Z,1003.52
2019-06-20T09:06:57.564Z,1003.48
2019-06-20T09:07:59.007Z,1003.42
2019-06-20T09:09:00.095Z,1003.31
2019-06-20T09:10:01.852Z,1003.23
2019-06-20T09:11:02.321Z,1003.15
2019-06-20T09:12:04.975Z,1003.08
2019-06-20T09:13:05.120Z,1003.10
2019-06-20T09:14:06.526Z,1003.11
2019-06-20T09:15:07.948Z,1003.03
2019-06-20T09:16:16.305Z,1002.99
2019-06-20T09:17:10.716Z,1003.02
2019-06-20T09:18:12.132Z,1003.01
2019-06-20T09:19:13.517Z,1002.98
2019-06-20T09:20:14.941Z,1003.05
2019-06-20T09:21:16.342Z,1003.06
2019-06-20T09:22:17.744Z,1003.01
2019-06-20T09:23:19.155Z,1003.05
2019-06-20T09:24:20.574Z,1003.00
2019-06-20T09:25:22.015Z,1003.01
2019-06-20T09:26:23.430Z,1003.07
2019-06-20T09:27:24.847Z,1003.06
2019-06-20T09:28:26.276Z,1003.10
2019-06-20T09:29:40.821Z,1003.11
2019-06-20T09:30:29.060Z,1003.15
2019-06-20T09:31:30.472Z,1003.12
2019-06-20T09:32:31.889Z,1003.09
2019-06-20T09:33:33.293Z,1003.06
2019-06-20T09:34:34.694Z,1003.11
2019-06-20T09:35:36.098Z,1003.07
2019-06-20T09:36:37.508Z,1003.10
2019-06-20T09:37:38.924Z,1003.08
2019-06-20T09:38:40.326Z,1003.04
2019-06-20T09:39:41.730Z,1003.07
2019-06-20T09:40:43.136Z,1003.06
2019-06-20T09:41:44.540Z,1003.03
2019-06-20T09:42:45.936Z,1003.00
2019-06-20T09:43:47.350Z,1002.97
2019-06-20T09:44:49.854Z,1002.96
2019-06-20T09:45:51.030Z,1002.97
2019-06-20T09:46:52.330Z,1002.97
2019-06-20T09:47:53.770Z,1003.06
2019-06-20T09:48:55.534Z,1003.05
2019-06-20T09:49:57.191Z,1003.05
2019-06-20T09:50:57.038Z,1003.08
2019-06-20T09:51:58.711Z,1003.09
2019-06-20T09:52:59.706Z,1003.09
2019-06-20T09:54:01.115Z,1003.07
2019-06-20T09:55:02.605Z,1003.08
2019-06-20T09:56:04.005Z,1003.11
2019-06-20T09:57:05.431Z,1003.07
2019-06-20T09:58:06.853Z,1003.06
2019-06-20T09:59:08.243Z,1003.15
2019-06-20T10:00:10.569Z,1003.19
2019-06-20T10:01:11.023Z,1003.18
2019-06-20T10:02:12.417Z,1003.19
2019-06-20T10:03:13.823Z,1003.22
2019-06-20T10:04:15.244Z,1003.22
2019-06-20T10:05:16.637Z,1003.25
2019-06-20T10:06:18.044Z,1003.26
2019-06-20T10:07:19.456Z,1003.32
2019-06-20T10:08:20.867Z,1003.33
2019-06-20T10:09:22.263Z,1003.34
2019-06-20T10:10:23.673Z,1003.41
2019-06-20T10:11:25.097Z,1003.37
2019-06-20T10:12:26.480Z,1003.40
2019-06-20T10:13:27.901Z,1003.46
2019-06-20T10:14:29.302Z,1003.47
2019-06-20T10:15:30.718Z,1003.51
2019-06-20T10:16:44.964Z,1003.51
2019-06-20T10:17:33.508Z,1003.58
2019-06-20T10:18:35.019Z,1003.58
2019-06-20T10:19:36.371Z,1003.60
2019-06-20T10:20:39.034Z,1003.59
2019-06-20T10:21:39.148Z,1003.63
2019-06-20T10:22:40.557Z,1003.58
2019-06-20T10:23:41.959Z,1003.57
2019-06-20T10:24:43.372Z,1003.59
2019-06-20T10:25:46.060Z,1003.55
2019-06-20T10:26:46.656Z,1003.57
2019-06-20T10:27:48.324Z,1003.63
2019-06-20T10:28:49.190Z,1003.66
2019-06-20T10:29:51.029Z,1003.72
2019-06-20T10:30:51.646Z,1003.80
2019-06-20T10:31:53.160Z,1003.81
2019-06-20T10:32:54.429Z,1003.79
2019-06-20T10:33:56.879Z,1003.79
2019-06-20T10:34:57.227Z,1003.83
2019-06-20T10:35:58.633Z,1003.82
2019-06-20T10:37:00.063Z,1003.80
2019-06-20T10:38:01.474Z,1003.78
2019-06-20T10:39:02.886Z,1003.77
2019-06-20T10:40:04.290Z,1003.78
2019-06-20T10:41:05.743Z,1003.79
2019-06-20T10:42:07.117Z,1003.80
2019-06-20T10:43:08.590Z,1003.83
2019-06-20T10:44:09.950Z,1003.85
2019-06-20T10:45:11.356Z,1003.83
2019-06-20T10:46:12.780Z,1003.88
2019-06-20T10:47:14.188Z,1003.85
2019-06-20T10:48:15.596Z,1003.87
2019-06-20T10:49:17.004Z,1003.90
2019-06-20T10:50:18.418Z,1003.95
2019-06-20T10:51:19.836Z,1003.91
2019-06-20T10:52:21.262Z,1003.96
2019-06-20T10:53:22.668Z,1003.97
2019-06-20T10:54:24.079Z,1003.95
2019-06-20T10:55:25.484Z,1003.98
2019-06-20T10:56:26.903Z,1003.99
2019-06-20T10:57:28.330Z,1004.02
2019-06-20T10:58:29.734Z,1004.05
2019-06-20T10:59:31.137Z,1004.06
2019-06-20T11:00:32.562Z,1004.09
2019-06-20T11:01:34.003Z,1004.05
2019-06-20T11:02:35.415Z,1004.09
2019-06-20T11:03:36.849Z,1004.09
2019-06-20T11:04:40.447Z,1004.08
2019-06-20T11:05:40.492Z,1004.09
2019-06-20T11:06:41.637Z,1004.10
2019-06-20T11:07:43.553Z,1004.09
2019-06-20T11:08:45.097Z,1004.13
2019-06-20T11:09:45.292Z,1004.14
2019-06-20T11:10:47.201Z,1004.10
2019-06-20T11:11:49.067Z,1004.10
2019-06-20T11:12:55.027Z,1004.11
2019-06-20T11:13:50.796Z,1004.09
2019-06-20T11:14:52.225Z,1004.08
2019-06-20T11:15:53.633Z,1004.10
2019-06-20T11:16:55.056Z,1004.09
2019-06-20T11:17:56.950Z,1004.13
2019-06-20T11:18:57.926Z,1004.13
2019-06-20T11:19:59.319Z,1004.10
2019-06-20T11:21:00.739Z,1004.14
2019-06-20T11:22:02.217Z,1004.12
2019-06-20T11:23:03.615Z,1004.12
2019-06-20T11:24:05.022Z,1004.12
2019-06-20T11:25:06.450Z,1004.11
2019-06-20T11:26:07.874Z,1004.12
2019-06-20T11:27:09.273Z,1004.16
2019-06-20T11:28:10.689Z,1004.14
2019-06-20T11:29:12.092Z,1004.12
2019-06-20T11:30:13.527Z,1004.15
2019-06-20T11:31:14.945Z,1004.09
2019-06-20T11:32:16.373Z,1004.18
2019-06-20T11:33:17.778Z,1004.15
2019-06-20T11:34:19.190Z,1004.21
2019-06-20T11:35:20.610Z,1004.23
2019-06-20T11:36:22.022Z,1004.30
2019-06-20T11:37:23.479Z,1004.30
2019-06-20T11:38:24.878Z,1004.30
2019-06-20T11:39:26.303Z,1004.31
2019-06-20T11:40:27.738Z,1004.34
2019-06-20T11:41:29.161Z,1004.32
2019-06-20T11:42:30.579Z,1004.38
2019-06-20T11:43:31.993Z,1004.35
2019-06-20T11:44:35.311Z,1004.35
2019-06-20T11:45:36.058Z,1004.39
2019-06-20T11:46:36.995Z,1004.39
2019-06-20T11:47:38.275Z,1004.37
2019-06-20T11:48:38.995Z,1004.32
2019-06-20T11:49:40.477Z,1004.32
2019-06-20T11:50:42.364Z,1004.38
2019-06-20T11:51:43.209Z,1004.35
2019-06-20T11:52:45.795Z,1004.36
2019-06-20T11:53:46.017Z,1004.36
2019-06-20T11:54:47.433Z,1004.36
2019-06-20T11:55:48.847Z,1004.37
2019-06-20T11:56:50.267Z,1004.41
2019-06-20T11:57:51.701Z,1004.42
2019-06-20T11:58:53.119Z,1004.40
2019-06-20T11:59:54.564Z,1004.40
2019-06-20T12:01:03.684Z,1004.40
2019-06-20T12:01:57.315Z,1004.44
2019-06-20T12:02:58.722Z,1004.48
2019-06-20T12:04:00.143Z,1004.47
2019-06-20T12:05:01.559Z,1004.50
2019-06-20T12:06:02.973Z,1004.47
2019-06-20T12:07:04.393Z,1004.50
2019-06-20T12:08:05.812Z,1004.52
2019-06-20T12:09:07.253Z,1004.53
2019-06-20T12:10:09.457Z,1004.53
2019-06-20T12:11:10.865Z,1004.53
2019-06-20T12:12:12.285Z,1004.51
2019-06-20T12:13:13.695Z,1004.51
2019-06-20T12:14:15.130Z,1004.51
2019-06-20T12:15:16.576Z,1004.47
2019-06-20T12:16:17.981Z,1004.45
2019-06-20T12:17:19.389Z,1004.52
2019-06-20T12:18:20.805Z,1004.49
2019-06-20T12:19:22.218Z,1004.46
2019-06-20T12:20:23.634Z,1004.49
2019-06-20T12:21:25.059Z,1004.48
2019-06-20T12:22:26.477Z,1004.41